Time;durP1;ratioP1;P1;durP2;ratioP2;P2;SDS_P1;SDS_P2;PMS_P1;PMS_P2;Temp;Humidity;BMP_temperature;BMP_pressure;BME280_temperature;BME280_humidity;BME280_pressure;Samples;Min_cycle;Max_cycle;Signal;HPM_P1;HPM_P2
2022/06/14 00:01:11;;;;;;;;;;;16.90;99.90;;;;;;4594102;19;20336;-33
2022/06/14 00:02:57;;;;;;;;;;;16.90;99.90;;;;;;4591747;19;19915;-33
2022/06/14 00:04:43;;;;;;;;;;;16.90;99.90;;;;;;4592709;19;19919;-37
2022/06/14 00:06:30;;;;;;;;;;;16.90;99.90;;;;;;4593577;19;20282;-32
2022/06/14 00:08:04;;;;;;;;;;;17.00;99.90;;;;;;4593237;19;20315;-38
2022/06/14 00:09:35;;;;;;;;;;;17.00;99.90;;;;;;4593806;19;20234;-38
2022/06/14 00:11:29;;;;;;;;;;;17.00;99.90;;;;;;4593070;19;19926;-36
2022/06/14 00:13:00;;;;;;;;;;;17.00;99.90;;;;;;4591653;19;19911;-32
2022/06/14 00:14:31;;;;;;;;;;;17.00;99.90;;;;;;4592333;19;19931;-33
2022/06/14 00:16:02;;;;;;;;;;;17.10;99.90;;;;;;4592313;19;19911;-37
2022/06/14 00:17:34;;;;;;;;;;;17.10;99.90;;;;;;4592410;19;19919;-36
2022/06/14 00:19:05;;;;;;;;;;;17.10;99.90;;;;;;4592097;19;20250;-33
2022/06/14 00:20:36;;;;;;;;;;;17.10;99.90;;;;;;4592990;19;19919;-33
2022/06/14 00:22:08;;;;;;;;;;;17.10;99.90;;;;;;4594293;19;19983;-33
2022/06/14 00:23:39;;;;;;;;;;;17.10;99.90;;;;;;4593068;19;19919;-37
2022/06/14 00:25:18;;;;;;;;;;;17.10;99.90;;;;;;4591547;19;19942;-41
2022/06/14 00:26:50;;;;;;;;;;;17.20;99.90;;;;;;4591825;19;19932;-38
2022/06/14 00:28:23;;;;;;;;;;;17.20;99.90;;;;;;4593521;19;19910;-38
2022/06/14 00:29:54;;;;;;;;;;;17.20;99.90;;;;;;4592780;19;19929;-35
2022/06/14 00:31:25;;;;;;;;;;;17.20;99.90;;;;;;4593008;19;20249;-34
2022/06/14 00:32:56;;;;;;;;;;;17.20;99.90;;;;;;4593184;19;19929;-34
2022/06/14 00:34:27;;;;;;;;;;;17.20;99.90;;;;;;4593685;19;19970;-40
2022/06/14 00:35:59;;;;;;;;;;;17.20;99.90;;;;;;4592847;19;19919;-37
2022/06/14 00:37:30;;;;;;;;;;;17.20;99.90;;;;;;4593180;19;19915;-37
2022/06/14 00:39:02;;;;;;;;;;;17.30;99.90;;;;;;4592684;19;19928;-35
2022/06/14 00:40:34;;;;;;;;;;;17.30;99.90;;;;;;4593541;19;19919;-34
2022/06/14 00:42:05;;;;;;;;;;;17.30;99.90;;;;;;4591440;19;19914;-34
2022/06/14 00:43:36;;;;;;;;;;;17.30;99.90;;;;;;4592295;19;19926;-39
2022/06/14 00:45:14;;;;;;;;;;;17.30;99.90;;;;;;4591339;19;19911;-41
2022/06/14 00:47:03;;;;;;;;;;;17.30;99.90;;;;;;4592873;19;19915;-39
2022/06/14 00:48:34;;;;;;;;;;;17.30;99.90;;;;;;4592155;19;19914;-37
2022/06/14 00:50:06;;;;;;;;;;;17.30;99.90;;;;;;4591510;19;19915;-34
2022/06/14 00:51:41;;;;;;;;;;;17.30;99.90;;;;;;4592465;19;19923;-39
2022/06/14 00:53:17;;;;;;;;;;;17.30;99.90;;;;;;4592078;19;19971;-37
2022/06/14 00:54:48;;;;;;;;;;;17.30;99.90;;;;;;4591306;19;19915;-35
2022/06/14 00:56:31;;;;;;;;;;;17.30;99.90;;;;;;4591522;19;19911;-38
2022/06/14 00:58:09;;;;;;;;;;;17.30;99.90;;;;;;4592598;19;19919;-37
2022/06/14 00:59:44;;;;;;;;;;;17.30;99.90;;;;;;4593002;19;19915;-37
2022/06/14 01:01:17;;;;;;;;;;;17.40;99.90;;;;;;4592973;19;20324;-35
2022/06/14 01:02:52;;;;;;;;;;;17.40;99.90;;;;;;4590331;19;19915;-41
2022/06/14 01:04:27;;;;;;;;;;;17.30;99.90;;;;;;4591836;19;19918;-32
2022/06/14 01:06:05;;;;;;;;;;;17.30;99.90;;;;;;4592863;19;19923;-35
2022/06/14 01:07:37;;;;;;;;;;;17.40;99.90;;;;;;4592238;19;19915;-32
2022/06/14 01:09:10;;;;;;;;;;;17.40;99.90;;;;;;4592777;19;19915;-34
2022/06/14 01:10:43;;;;;;;;;;;17.40;99.90;;;;;;4591017;19;19922;-38
2022/06/14 01:12:15;;;;;;;;;;;17.40;99.90;;;;;;4591806;19;19910;-34
2022/06/14 01:13:46;;;;;;;;;;;17.40;99.90;;;;;;4592674;19;19919;-38
2022/06/14 01:15:21;;;;;;;;;;;17.40;99.90;;;;;;4591120;19;19935;-34
2022/06/14 01:16:52;;;;;;;;;;;17.40;99.90;;;;;;4591496;19;19915;-33
2022/06/14 01:18:24;;;;;;;;;;;17.40;99.90;;;;;;4592230;19;19922;-34
2022/06/14 01:19:55;;;;;;;;;;;17.40;99.90;;;;;;4591222;19;19918;-34
2022/06/14 01:21:26;;;;;;;;;;;17.40;99.90;;;;;;4590814;19;19926;-36
2022/06/14 01:22:57;;;;;;;;;;;17.40;99.90;;;;;;4591727;19;19959;-41
2022/06/14 01:24:29;;;;;;;;;;;17.40;99.90;;;;;;4589189;19;19918;-32
2022/06/14 01:26:11;;;;;;;;;;;17.40;99.90;;;;;;4590823;19;19918;-36
2022/06/14 01:27:42;;;;;;;;;;;17.40;99.90;;;;;;4592017;19;19911;-35
2022/06/14 01:29:13;;;;;;;;;;;17.40;99.90;;;;;;4591858;19;19966;-35
2022/06/14 01:30:48;;;;;;;;;;;17.40;99.90;;;;;;4592199;19;20255;-32
2022/06/14 01:32:19;;;;;;;;;;;17.40;99.90;;;;;;4590507;19;19919;-39
2022/06/14 01:33:51;;;;;;;;;;;17.40;99.90;;;;;;4591192;19;19975;-33
2022/06/14 01:35:24;;;;;;;;;;;17.40;99.90;;;;;;4591108;19;19919;-39
2022/06/14 01:36:55;;;;;;;;;;;17.40;99.90;;;;;;4592064;19;19974;-32
2022/06/14 01:38:26;;;;;;;;;;;17.50;99.90;;;;;;4590038;19;19915;-33
2022/06/14 01:39:57;;;;;;;;;;;17.50;99.90;;;;;;4591132;19;19915;-31
2022/06/14 01:41:31;;;;;;;;;;;17.50;99.90;;;;;;4592023;19;20257;-39
2022/06/14 01:43:06;;;;;;;;;;;17.50;99.90;;;;;;4591336;19;19942;-37
2022/06/14 01:44:37;;;;;;;;;;;17.50;99.90;;;;;;4590621;19;19944;-37
2022/06/14 01:46:08;;;;;;;;;;;17.50;99.90;;;;;;4591728;19;19943;-33
2022/06/14 01:47:49;;;;;;;;;;;17.40;99.90;;;;;;4591911;19;19915;-37
2022/06/14 01:51:50;;;;;;;;;;;17.50;99.90;;;;;;4592293;19;19915;-37
2022/06/14 01:53:45;;;;;;;;;;;17.50;99.90;;;;;;4590383;19;19943;-36
2022/06/14 01:55:22;;;;;;;;;;;17.50;99.90;;;;;;4588911;19;19922;-36
2022/06/14 01:57:11;;;;;;;;;;;17.50;99.90;;;;;;4588794;19;20250;-37
2022/06/14 01:59:01;;;;;;;;;;;17.40;99.90;;;;;;4590697;19;20311;-32
2022/06/14 02:00:34;;;;;;;;;;;17.50;99.90;;;;;;4588853;19;19919;-32
2022/06/14 02:02:06;;;;;;;;;;;17.50;99.90;;;;;;4588810;19;19915;-33
2022/06/14 02:05:32;;;;;;;;;;;17.50;99.90;;;;;;4588889;19;19918;-34
2022/06/14 02:07:09;;;;;;;;;;;17.50;99.90;;;;;;4588970;19;19921;-31
2022/06/14 02:08:44;;;;;;;;;;;17.50;99.90;;;;;;4588794;19;20397;-32
2022/06/14 02:10:18;;;;;;;;;;;17.50;99.90;;;;;;4589705;19;19914;-33
2022/06/14 02:11:49;;;;;;;;;;;17.50;99.90;;;;;;4588636;19;19975;-32
2022/06/14 02:13:41;;;;;;;;;;;17.50;99.90;;;;;;4588596;19;19938;-32
2022/06/14 02:15:12;;;;;;;;;;;17.50;99.90;;;;;;4587900;19;19966;-33
2022/06/14 02:16:45;;;;;;;;;;;17.50;99.90;;;;;;4589154;19;20234;-37
2022/06/14 02:18:16;;;;;;;;;;;17.50;99.90;;;;;;4588683;19;19907;-33
2022/06/14 02:20:07;;;;;;;;;;;17.50;99.90;;;;;;4588944;19;19919;-38
2022/06/14 02:21:46;;;;;;;;;;;17.50;99.90;;;;;;4588801;19;20262;-33
2022/06/14 02:23:17;;;;;;;;;;;17.50;99.90;;;;;;4588792;19;20363;-35
2022/06/14 02:24:49;;;;;;;;;;;17.50;99.90;;;;;;4588550;19;20036;-36
2022/06/14 02:26:24;;;;;;;;;;;17.50;99.90;;;;;;4588017;19;19939;-36
2022/06/14 02:27:59;;;;;;;;;;;17.50;99.90;;;;;;4588426;19;19915;-31
2022/06/14 02:29:34;;;;;;;;;;;17.50;99.90;;;;;;4588785;19;19978;-36
2022/06/14 02:31:07;;;;;;;;;;;17.50;99.90;;;;;;4588739;19;20340;-30
2022/06/14 02:32:44;;;;;;;;;;;17.50;99.90;;;;;;4588620;19;19914;-32
2022/06/14 02:34:17;;;;;;;;;;;17.50;99.90;;;;;;4589247;19;19922;-31
2022/06/14 02:35:57;;;;;;;;;;;17.50;99.90;;;;;;4589816;19;19926;-35
2022/06/14 02:37:30;;;;;;;;;;;17.50;99.90;;;;;;4595629;19;20329;-33
2022/06/14 02:39:05;;;;;;;;;;;17.50;99.90;;;;;;4593947;19;19991;-35
2022/06/14 02:40:42;;;;;;;;;;;17.50;99.90;;;;;;4593554;19;19933;-32
2022/06/14 02:42:13;;;;;;;;;;;17.50;99.90;;;;;;4593537;19;20344;-36
2022/06/14 02:43:47;;;;;;;;;;;17.50;99.90;;;;;;4593488;19;19910;-34
2022/06/14 02:45:26;;;;;;;;;;;17.60;99.90;;;;;;4590155;19;19952;-34
2022/06/14 02:47:15;;;;;;;;;;;17.60;99.90;;;;;;4593121;19;19990;-34
2022/06/14 02:49:07;;;;;;;;;;;17.60;99.90;;;;;;4592352;19;20267;-34
2022/06/14 02:50:38;;;;;;;;;;;17.60;99.90;;;;;;4592920;19;20249;-32
2022/06/14 02:52:20;;;;;;;;;;;17.60;99.90;;;;;;4593587;19;19978;-35
2022/06/14 02:53:53;;;;;;;;;;;17.60;99.90;;;;;;4592766;19;19933;-37
2022/06/14 02:55:43;;;;;;;;;;;17.60;99.90;;;;;;4592074;19;19937;-37
2022/06/14 02:57:35;;;;;;;;;;;17.60;99.90;;;;;;4592152;19;20269;-32
2022/06/14 02:59:23;;;;;;;;;;;17.60;99.90;;;;;;4593533;19;19923;-32
2022/06/14 03:01:45;;;;;;;;;;;17.60;99.90;;;;;;4592798;19;19915;-31
2022/06/14 03:03:33;;;;;;;;;;;17.60;99.90;;;;;;4592870;19;20391;-32
2022/06/14 03:05:51;;;;;;;;;;;17.60;99.90;;;;;;4591188;19;19919;-32
2022/06/14 03:07:39;;;;;;;;;;;17.60;99.90;;;;;;4590365;19;20353;-36
2022/06/14 03:09:26;;;;;;;;;;;17.60;99.90;;;;;;4590895;19;19919;-33
2022/06/14 03:11:29;;;;;;;;;;;17.60;99.90;;;;;;4590871;19;20325;-30
2022/06/14 03:13:36;;;;;;;;;;;17.60;99.90;;;;;;4591615;19;19919;-36
2022/06/14 03:15:31;;;;;;;;;;;17.60;99.90;;;;;;4592568;19;19923;-35
2022/06/14 03:17:23;;;;;;;;;;;17.60;99.90;;;;;;4593050;19;19948;-31
2022/06/14 03:19:15;;;;;;;;;;;17.70;99.90;;;;;;4593553;19;19930;-34
2022/06/14 03:20:57;;;;;;;;;;;17.70;99.90;;;;;;4592862;19;19919;-37
2022/06/14 03:22:30;;;;;;;;;;;17.60;99.90;;;;;;4592913;19;19916;-31
2022/06/14 03:24:09;;;;;;;;;;;17.60;99.90;;;;;;4592405;19;20737;-32
2022/06/14 03:25:43;;;;;;;;;;;17.70;99.90;;;;;;4592302;19;19921;-35
2022/06/14 03:27:17;;;;;;;;;;;17.70;99.90;;;;;;4592404;19;19915;-34
2022/06/14 03:28:50;;;;;;;;;;;17.70;99.90;;;;;;4591971;19;19927;-35
2022/06/14 03:30:21;;;;;;;;;;;17.70;99.90;;;;;;4591469;19;19918;-31
2022/06/14 03:31:55;;;;;;;;;;;17.70;99.90;;;;;;4590749;19;19940;-31
2022/06/14 03:33:34;;;;;;;;;;;17.70;99.90;;;;;;4591094;19;20085;-34
2022/06/14 03:35:12;;;;;;;;;;;17.70;99.90;;;;;;4591865;19;19922;-36
2022/06/14 03:36:43;;;;;;;;;;;15.50;99.90;;;;;;4591753;19;19940;-36
2022/06/14 03:38:14;;;;;;;;;;;14.60;99.90;;;;;;4591554;19;20026;-34
2022/06/14 03:39:53;;;;;;;;;;;14.40;99.90;;;;;;4591504;19;20025;-32
2022/06/14 03:41:25;;;;;;;;;;;14.30;99.90;;;;;;4592641;19;19919;-32
2022/06/14 03:42:56;;;;;;;;;;;14.30;99.90;;;;;;4592887;19;20230;-33
2022/06/14 03:44:27;;;;;;;;;;;14.20;99.90;;;;;;4591386;19;19922;-33
2022/06/14 03:46:02;;;;;;;;;;;14.20;99.90;;;;;;4591950;19;19914;-35
2022/06/14 03:47:33;;;;;;;;;;;14.20;99.90;;;;;;4590230;19;19919;-32
2022/06/14 03:49:08;;;;;;;;;;;14.20;99.90;;;;;;4591329;19;19927;-29
2022/06/14 03:50:46;;;;;;;;;;;14.20;99.90;;;;;;4592586;19;19919;-30
2022/06/14 03:52:26;;;;;;;;;;;14.20;99.90;;;;;;4592745;19;19948;-38
2022/06/14 03:54:01;;;;;;;;;;;14.20;99.90;;;;;;4591909;19;19914;-37
2022/06/14 03:55:43;;;;;;;;;;;14.20;99.90;;;;;;4592030;19;19968;-36
2022/06/14 03:57:34;;;;;;;;;;;14.20;99.90;;;;;;4591886;19;19942;-31
2022/06/14 03:59:05;;;;;;;;;;;14.20;99.90;;;;;;4591580;19;19951;-32
2022/06/14 04:00:39;;;;;;;;;;;14.20;99.90;;;;;;4592089;19;19922;-39
2022/06/14 04:02:10;;;;;;;;;;;14.20;99.90;;;;;;4590867;19;19938;-35
2022/06/14 04:03:53;;;;;;;;;;;14.20;99.90;;;;;;4591540;19;19922;-31
2022/06/14 04:05:43;;;;;;;;;;;14.20;99.90;;;;;;4589829;19;19918;-32
2022/06/14 04:07:16;;;;;;;;;;;14.20;99.90;;;;;;4591316;19;20321;-36
2022/06/14 04:08:54;;;;;;;;;;;14.20;99.90;;;;;;4591129;19;20264;-32
2022/06/14 04:10:32;;;;;;;;;;;14.20;99.90;;;;;;4591013;19;19990;-35
2022/06/14 04:12:03;;;;;;;;;;;14.20;99.90;;;;;;4592293;19;19918;-33
2022/06/14 04:13:39;;;;;;;;;;;14.20;99.90;;;;;;4591951;19;19919;-33
2022/06/14 04:15:29;;;;;;;;;;;14.30;99.90;;;;;;4591640;19;20327;-34
2022/06/14 04:17:13;;;;;;;;;;;14.20;99.90;;;;;;4594278;19;19929;-33
2022/06/14 04:19:07;;;;;;;;;;;14.20;99.90;;;;;;4594286;19;19914;-34
2022/06/14 04:20:39;;;;;;;;;;;14.30;99.90;;;;;;4591825;19;19977;-35
2022/06/14 04:22:19;;;;;;;;;;;14.30;99.90;;;;;;4592732;19;19987;-34
2022/06/14 04:23:53;;;;;;;;;;;14.30;99.90;;;;;;4593697;19;19926;-35
2022/06/14 04:25:39;;;;;;;;;;;14.30;99.90;;;;;;4592687;19;19938;-32
2022/06/14 04:27:29;;;;;;;;;;;14.30;99.90;;;;;;4594033;19;19918;-33
2022/06/14 04:29:00;;;;;;;;;;;14.30;99.90;;;;;;4594172;19;19932;-34
2022/06/14 04:30:36;;;;;;;;;;;14.40;99.90;;;;;;4592863;19;19918;-36
2022/06/14 04:32:19;;;;;;;;;;;14.40;99.90;;;;;;4594571;19;19985;-32
2022/06/14 04:33:54;;;;;;;;;;;14.40;99.90;;;;;;4592688;19;19918;-32
2022/06/14 04:35:26;;;;;;;;;;;14.40;99.90;;;;;;4592513;19;19914;-36
2022/06/14 04:36:58;;;;;;;;;;;14.40;99.90;;;;;;4593088;19;19917;-33
2022/06/14 04:38:42;;;;;;;;;;;14.40;99.90;;;;;;4592143;19;19953;-30
2022/06/14 04:40:15;;;;;;;;;;;14.40;99.90;;;;;;4592197;19;20325;-35
2022/06/14 04:41:48;;;;;;;;;;;14.40;99.90;;;;;;4590216;19;20338;-33
2022/06/14 04:43:21;;;;;;;;;;;14.50;99.90;;;;;;4591755;19;20322;-31
2022/06/14 04:44:53;;;;;;;;;;;14.50;99.90;;;;;;4591635;19;20357;-31
2022/06/14 04:46:24;;;;;;;;;;;14.40;99.90;;;;;;4593602;19;19929;-34
2022/06/14 04:48:05;;;;;;;;;;;14.40;99.90;;;;;;4592566;19;19918;-33
2022/06/14 04:49:46;;;;;;;;;;;14.40;99.90;;;;;;4590149;19;19952;-35
2022/06/14 04:51:26;;;;;;;;;;;14.40;99.90;;;;;;4589801;19;19926;-34
2022/06/14 04:52:58;;;;;;;;;;;14.40;99.90;;;;;;4593066;19;19918;-32
2022/06/14 04:54:33;;;;;;;;;;;14.40;99.90;;;;;;4591605;19;19927;-31
2022/06/14 04:56:06;;;;;;;;;;;14.40;99.90;;;;;;4591192;19;20268;-31
2022/06/14 04:57:43;;;;;;;;;;;14.50;99.90;;;;;;4591929;19;20271;-36
2022/06/14 04:59:22;;;;;;;;;;;14.50;99.90;;;;;;4592614;19;19996;-32
2022/06/14 05:00:55;;;;;;;;;;;14.50;99.90;;;;;;4591740;19;19918;-33
2022/06/14 05:02:34;;;;;;;;;;;14.60;99.90;;;;;;4590730;19;19911;-31
2022/06/14 05:04:29;;;;;;;;;;;14.60;99.90;;;;;;4591810;19;19923;-31
2022/06/14 05:06:02;;;;;;;;;;;14.60;99.90;;;;;;4590124;19;19918;-33
2022/06/14 05:07:42;;;;;;;;;;;14.60;99.90;;;;;;4590644;19;20028;-29
2022/06/14 05:09:14;;;;;;;;;;;14.70;99.90;;;;;;4590940;19;19990;-34
2022/06/14 05:11:00;;;;;;;;;;;14.70;99.90;;;;;;4589684;19;19986;-34
2022/06/14 05:12:52;;;;;;;;;;;14.70;99.90;;;;;;4590111;19;19961;-32
2022/06/14 05:14:26;;;;;;;;;;;14.70;99.90;;;;;;4590131;19;20377;-34
2022/06/14 05:15:58;;;;;;;;;;;14.60;99.90;;;;;;4590343;19;19915;-31
2022/06/14 05:17:30;;;;;;;;;;;14.70;99.90;;;;;;4590350;19;19919;-34
2022/06/14 05:19:08;;;;;;;;;;;14.60;99.90;;;;;;4589777;19;19949;-29
2022/06/14 05:20:44;;;;;;;;;;;14.70;99.90;;;;;;4589581;19;19918;-34
2022/06/14 05:22:18;;;;;;;;;;;14.70;99.90;;;;;;4590392;19;20321;-33
2022/06/14 05:23:49;;;;;;;;;;;14.70;99.90;;;;;;4589709;19;19915;-38
2022/06/14 05:25:21;;;;;;;;;;;14.70;99.90;;;;;;4588771;19;19915;-34
2022/06/14 05:26:58;;;;;;;;;;;14.70;99.90;;;;;;4589782;19;19914;-31
2022/06/14 05:28:34;;;;;;;;;;;14.70;99.90;;;;;;4589656;19;20362;-35
2022/06/14 05:30:06;;;;;;;;;;;14.80;99.90;;;;;;4590542;19;19918;-31
2022/06/14 05:31:55;;;;;;;;;;;14.70;99.90;;;;;;4589482;19;19986;-34
2022/06/14 05:33:35;;;;;;;;;;;14.70;99.90;;;;;;4589487;19;19934;-32
2022/06/14 05:35:09;;;;;;;;;;;14.70;99.90;;;;;;4589785;19;19914;-31
2022/06/14 05:36:45;;;;;;;;;;;14.70;99.90;;;;;;4589666;19;19915;-31
2022/06/14 05:38:34;;;;;;;;;;;14.80;99.90;;;;;;4589569;19;20412;-32
2022/06/14 05:40:24;;;;;;;;;;;14.80;99.90;;;;;;4588931;19;19918;-30
2022/06/14 05:42:02;;;;;;;;;;;14.80;99.90;;;;;;4589484;19;19931;-36
2022/06/14 05:43:42;;;;;;;;;;;14.90;99.90;;;;;;4590071;19;19930;-34
2022/06/14 05:45:15;;;;;;;;;;;14.90;99.90;;;;;;4589751;19;19935;-33
2022/06/14 05:46:55;;;;;;;;;;;14.90;99.90;;;;;;4590491;19;19982;-32
2022/06/14 05:48:30;;;;;;;;;;;14.90;99.90;;;;;;4590837;19;19978;-29
2022/06/14 05:50:02;;;;;;;;;;;14.90;99.90;;;;;;4588550;19;19995;-32
2022/06/14 05:51:38;;;;;;;;;;;15.00;99.90;;;;;;4590254;19;19952;-35
2022/06/14 05:53:15;;;;;;;;;;;15.00;99.90;;;;;;4591677;19;20254;-30
2022/06/14 05:54:51;;;;;;;;;;;15.00;99.90;;;;;;4589972;19;19970;-33
2022/06/14 05:56:25;;;;;;;;;;;15.00;99.90;;;;;;4590321;19;19915;-32
2022/06/14 05:57:57;;;;;;;;;;;15.10;99.90;;;;;;4590068;19;19918;-32
2022/06/14 05:59:35;;;;;;;;;;;15.10;99.90;;;;;;4590111;19;20326;-34
2022/06/14 06:01:16;;;;;;;;;;;15.20;99.90;;;;;;4589195;19;19951;-34
2022/06/14 06:02:58;;;;;;;;;;;15.20;99.90;;;;;;4588365;19;19925;-31
2022/06/14 06:04:30;;;;;;;;;;;15.20;99.90;;;;;;4589259;19;19923;-41
2022/06/14 06:06:02;;;;;;;;;;;15.20;99.90;;;;;;4589018;19;19919;-33
2022/06/14 06:07:34;;;;;;;;;;;15.30;99.90;;;;;;4590449;19;19926;-28
2022/06/14 06:09:08;;;;;;;;;;;15.30;99.90;;;;;;4590008;19;20263;-38
2022/06/14 06:10:47;;;;;;;;;;;15.30;99.90;;;;;;4589355;19;19922;-32
2022/06/14 06:12:22;;;;;;;;;;;15.30;99.90;;;;;;4589125;19;19919;-29
2022/06/14 06:14:09;;;;;;;;;;;15.40;99.90;;;;;;4589261;19;19919;-33
2022/06/14 06:15:43;;;;;;;;;;;15.40;99.90;;;;;;4588902;19;19918;-29
2022/06/14 06:17:25;;;;;;;;;;;15.40;99.90;;;;;;4589430;19;19914;-32
2022/06/14 06:18:57;;;;;;;;;;;15.40;99.90;;;;;;4588674;19;20305;-37
2022/06/14 06:20:36;;;;;;;;;;;15.50;99.90;;;;;;4589229;19;20279;-34
2022/06/14 06:22:18;;;;;;;;;;;15.50;99.90;;;;;;4588139;19;20264;-34
2022/06/14 06:23:52;;;;;;;;;;;15.50;99.90;;;;;;4588489;19;19922;-38
2022/06/14 06:25:28;;;;;;;;;;;15.50;99.90;;;;;;4587981;19;19922;-36
2022/06/14 06:27:03;;;;;;;;;;;15.50;99.90;;;;;;4587946;19;19919;-35
2022/06/14 06:28:36;;;;;;;;;;;15.50;99.90;;;;;;4588525;19;19925;-37
2022/06/14 06:30:08;;;;;;;;;;;15.60;99.90;;;;;;4590679;19;19919;-36
2022/06/14 06:31:39;;;;;;;;;;;15.60;99.90;;;;;;4590346;19;19922;-35
2022/06/14 06:33:12;;;;;;;;;;;15.60;99.90;;;;;;4589758;19;20307;-33
2022/06/14 06:34:44;;;;;;;;;;;15.60;99.90;;;;;;4589757;19;19930;-35
2022/06/14 06:36:30;;;;;;;;;;;15.70;99.90;;;;;;4590257;19;19918;-37
2022/06/14 06:38:28;;;;;;;;;;;15.70;99.90;;;;;;4590447;19;19966;-34
2022/06/14 06:40:00;;;;;;;;;;;15.80;99.90;;;;;;4588510;19;19982;-36
2022/06/14 06:41:50;;;;;;;;;;;15.80;99.90;;;;;;4588660;19;19911;-30
2022/06/14 06:43:21;;;;;;;;;;;15.80;99.90;;;;;;4588468;19;19915;-32
2022/06/14 06:45:01;;;;;;;;;;;15.80;99.90;;;;;;4587474;19;19922;-33
2022/06/14 06:46:35;;;;;;;;;;;15.80;99.90;;;;;;4562402;19;19962;-35
2022/06/14 06:48:12;;;;;;;;;;;15.80;99.90;;;;;;4588760;19;19923;-34
2022/06/14 06:50:02;;;;;;;;;;;15.80;99.90;;;;;;4586917;19;19993;-33
2022/06/14 06:51:40;;;;;;;;;;;15.80;99.90;;;;;;4588164;19;19911;-36
2022/06/14 06:53:12;;;;;;;;;;;15.80;99.90;;;;;;4587597;19;19910;-35
2022/06/14 06:54:47;;;;;;;;;;;15.80;99.90;;;;;;4587642;19;19915;-34
2022/06/14 06:56:21;;;;;;;;;;;15.90;99.90;;;;;;4588497;19;20279;-36
2022/06/14 06:57:53;;;;;;;;;;;16.00;99.90;;;;;;4588032;19;19918;-34
2022/06/14 06:59:24;;;;;;;;;;;16.00;99.90;;;;;;4588027;19;19962;-38
2022/06/14 07:00:56;;;;;;;;;;;15.90;99.90;;;;;;4588424;19;19953;-32
2022/06/14 07:02:38;;;;;;;;;;;15.90;99.90;;;;;;4587481;19;20297;-31
2022/06/14 07:04:13;;;;;;;;;;;16.00;99.90;;;;;;4588165;19;19910;-32
2022/06/14 07:05:46;;;;;;;;;;;16.00;99.90;;;;;;4587881;19;20327;-32
2022/06/14 07:07:16;;;;;;;;;;;16.10;99.90;;;;;;4588032;19;19926;-33
2022/06/14 07:08:58;;;;;;;;;;;16.10;99.90;;;;;;4587870;19;19938;-30
2022/06/14 07:10:35;;;;;;;;;;;16.10;99.90;;;;;;4587741;19;20261;-34
2022/06/14 07:12:07;;;;;;;;;;;16.10;99.90;;;;;;4588733;19;19975;-34
2022/06/14 07:13:44;;;;;;;;;;;16.00;99.90;;;;;;4587858;19;19911;-32
2022/06/14 07:15:53;;;;;;;;;;;16.00;99.90;;;;;;4587498;19;20390;-32
2022/06/14 07:17:27;;;;;;;;;;;16.00;99.90;;;;;;4587591;19;19932;-38
2022/06/14 07:19:14;;;;;;;;;;;15.90;99.90;;;;;;4587599;19;19948;-38
2022/06/14 07:20:48;;;;;;;;;;;15.90;99.90;;;;;;4587907;19;20261;-37
2022/06/14 07:22:28;;;;;;;;;;;15.90;99.90;;;;;;4587487;19;19974;-32
2022/06/14 07:24:01;;;;;;;;;;;15.90;99.90;;;;;;4591636;19;19922;-38
2022/06/14 07:25:43;;;;;;;;;;;15.90;99.90;;;;;;4591143;19;19932;-37
2022/06/14 07:27:16;;;;;;;;;;;15.90;99.90;;;;;;4592552;19;19918;-35
2022/06/14 07:28:53;;;;;;;;;;;15.90;99.90;;;;;;4592779;19;19915;-31
2022/06/14 07:30:29;;;;;;;;;;;15.90;99.90;;;;;;4592405;19;19944;-35
2022/06/14 07:32:10;;;;;;;;;;;15.90;99.90;;;;;;4592660;19;19929;-37
2022/06/14 07:33:42;;;;;;;;;;;15.90;99.90;;;;;;4592052;19;19923;-38
2022/06/14 07:35:15;;;;;;;;;;;16.00;99.90;;;;;;4592335;19;19910;-35
2022/06/14 07:37:06;;;;;;;;;;;16.10;99.90;;;;;;4592068;19;19914;-33
2022/06/14 07:38:48;;;;;;;;;;;16.10;99.90;;;;;;4591837;19;19919;-35
2022/06/14 07:40:21;;;;;;;;;;;16.10;99.90;;;;;;4591733;19;19922;-33
2022/06/14 07:41:52;;;;;;;;;;;16.10;99.90;;;;;;4591412;19;19923;-32
2022/06/14 07:43:35;;;;;;;;;;;16.10;99.90;;;;;;4592717;19;19915;-36
2022/06/14 07:45:06;;;;;;;;;;;16.10;99.90;;;;;;4590720;19;20273;-29
2022/06/14 07:46:43;;;;;;;;;;;16.10;99.90;;;;;;4591459;19;19919;-36
2022/06/14 07:48:15;;;;;;;;;;;16.10;99.90;;;;;;4592235;19;19922;-33
2022/06/14 07:49:55;;;;;;;;;;;16.00;99.90;;;;;;4591862;19;19949;-36
2022/06/14 07:51:31;;;;;;;;;;;16.00;99.90;;;;;;4593295;19;19911;-33
2022/06/14 07:53:10;;;;;;;;;;;16.10;99.90;;;;;;4594054;19;19944;-35
2022/06/14 07:54:43;;;;;;;;;;;16.10;99.90;;;;;;4594302;19;20259;-30
2022/06/14 07:56:20;;;;;;;;;;;16.10;99.90;;;;;;4592424;19;19982;-35
2022/06/14 07:57:57;;;;;;;;;;;16.00;99.90;;;;;;4592389;19;19971;-32
2022/06/14 07:59:33;;;;;;;;;;;16.10;99.90;;;;;;4592639;19;19973;-36
2022/06/14 08:01:13;;;;;;;;;;;16.10;99.90;;;;;;4592794;19;19942;-33
2022/06/14 08:02:44;;;;;;;;;;;16.10;99.90;;;;;;4591753;19;19938;-32
2022/06/14 08:04:21;;;;;;;;;;;16.10;99.90;;;;;;4593151;19;19915;-33
2022/06/14 08:05:52;;;;;;;;;;;16.10;99.90;;;;;;4592189;19;19951;-32
2022/06/14 08:07:23;;;;;;;;;;;16.10;99.90;;;;;;4592370;19;19946;-33
2022/06/14 08:09:18;;;;;;;;;;;16.10;99.90;;;;;;4592482;19;20336;-33
2022/06/14 08:10:52;;;;;;;;;;;16.10;99.90;;;;;;4591112;19;20550;-33
2022/06/14 08:12:31;;;;;;;;;;;16.10;99.90;;;;;;4593139;19;19926;-31
2022/06/14 08:14:04;;;;;;;;;;;16.00;99.90;;;;;;4593209;19;20370;-29
2022/06/14 08:15:35;;;;;;;;;;;16.00;99.90;;;;;;4592484;19;19915;-32
2022/06/14 08:17:08;;;;;;;;;;;16.00;99.90;;;;;;4593340;19;19915;-32
2022/06/14 08:18:41;;;;;;;;;;;16.00;99.90;;;;;;4593066;19;20383;-30
2022/06/14 08:20:17;;;;;;;;;;;16.00;99.90;;;;;;4593212;19;19915;-32
2022/06/14 08:22:09;;;;;;;;;;;16.00;99.90;;;;;;4593074;19;20270;-31
2022/06/14 08:23:47;;;;;;;;;;;16.00;99.90;;;;;;4592299;19;19915;-30
2022/06/14 08:25:20;;;;;;;;;;;16.00;99.90;;;;;;4592530;19;19942;-38
2022/06/14 08:26:56;;;;;;;;;;;16.00;99.90;;;;;;4591905;19;19911;-35
2022/06/14 08:28:36;;;;;;;;;;;16.00;99.90;;;;;;4591990;19;19926;-33
2022/06/14 08:30:17;;;;;;;;;;;16.00;99.90;;;;;;4591787;19;19923;-38
2022/06/14 08:32:07;;;;;;;;;;;16.00;99.90;;;;;;4595631;19;19923;-35
2022/06/14 08:33:39;;;;;;;;;;;16.00;99.90;;;;;;4591438;19;19918;-32
2022/06/14 08:35:15;;;;;;;;;;;16.00;99.90;;;;;;4591749;19;19922;-33
2022/06/14 08:36:56;;;;;;;;;;;16.10;99.90;;;;;;4591818;19;19922;-37
2022/06/14 08:38:33;;;;;;;;;;;16.10;99.90;;;;;;4592861;19;19974;-36
2022/06/14 08:40:22;;;;;;;;;;;16.10;99.90;;;;;;4592013;19;19942;-36
2022/06/14 08:41:56;;;;;;;;;;;16.10;99.90;;;;;;4592736;19;19918;-32
2022/06/14 08:43:36;;;;;;;;;;;16.00;99.90;;;;;;4592553;19;20312;-34
2022/06/14 08:45:13;;;;;;;;;;;16.00;99.90;;;;;;4591726;19;19921;-34
2022/06/14 08:46:54;;;;;;;;;;;16.00;99.90;;;;;;4592554;19;19926;-34
2022/06/14 08:48:29;;;;;;;;;;;16.00;99.90;;;;;;4592719;19;19918;-30
2022/06/14 08:50:09;;;;;;;;;;;16.00;99.90;;;;;;4592026;19;19975;-34
2022/06/14 08:51:43;;;;;;;;;;;16.00;99.90;;;;;;4591766;19;19915;-31
2022/06/14 08:53:19;;;;;;;;;;;15.90;99.90;;;;;;4590455;19;19927;-37
2022/06/14 08:55:17;;;;;;;;;;;15.90;99.90;;;;;;4590936;19;19911;-31
2022/06/14 08:56:48;;;;;;;;;;;15.90;99.90;;;;;;4590957;19;19923;-32
2022/06/14 08:58:48;;;;;;;;;;;15.90;99.90;;;;;;4591239;19;19915;-34
2022/06/14 09:00:22;;;;;;;;;;;15.90;99.90;;;;;;4589545;19;19919;-35
2022/06/14 09:02:08;;;;;;;;;;;15.90;99.90;;;;;;4588913;19;20356;-33
2022/06/14 09:03:48;;;;;;;;;;;16.00;99.90;;;;;;4589546;19;19980;-31
2022/06/14 09:05:37;;;;;;;;;;;16.00;99.90;;;;;;4588531;19;20329;-33
2022/06/14 09:07:27;;;;;;;;;;;16.10;99.90;;;;;;4589106;19;20339;-36
2022/06/14 09:09:07;;;;;;;;;;;16.10;99.90;;;;;;4590855;19;20360;-33
2022/06/14 09:10:50;;;;;;;;;;;16.10;99.90;;;;;;4589816;19;19921;-35
2022/06/14 09:12:39;;;;;;;;;;;16.10;99.90;;;;;;4589489;19;19936;-30
2022/06/14 09:14:29;;;;;;;;;;;16.20;99.90;;;;;;4589893;19;19922;-34
2022/06/14 09:16:04;;;;;;;;;;;16.20;99.90;;;;;;4590208;19;20261;-39
2022/06/14 09:17:44;;;;;;;;;;;16.20;99.90;;;;;;4589524;19;19915;-36
2022/06/14 09:19:27;;;;;;;;;;;16.10;99.90;;;;;;4590442;19;19914;-32
2022/06/14 09:21:13;;;;;;;;;;;16.20;99.90;;;;;;4589454;19;19915;-33
2022/06/14 09:22:52;;;;;;;;;;;16.20;99.90;;;;;;4589056;19;19986;-37
2022/06/14 09:24:38;;;;;;;;;;;16.20;99.90;;;;;;4588784;19;19929;-31
2022/06/14 09:26:47;;;;;;;;;;;16.20;99.90;;;;;;4589552;19;19923;-34
2022/06/14 09:28:18;;;;;;;;;;;16.30;99.90;;;;;;4589463;19;19926;-33
2022/06/14 09:30:12;;;;;;;;;;;16.30;99.90;;;;;;4589943;19;20337;-32
2022/06/14 09:31:53;;;;;;;;;;;16.30;99.90;;;;;;4592134;19;20001;-36
2022/06/14 09:33:38;;;;;;;;;;;16.20;99.90;;;;;;4589187;19;19933;-32